ADDS METAR Data INFO
IDs: Format: Raw Decoded Include TAF

Data at: 0643 UTC 23 Feb 2018

KHWV 230556Z AUTO VRB05KT 10SM OVC041 02/01 A3068 RMK AO2 SLP390 T00170006 10028 20017 53002
KHWV 230517Z AUTO VRB03KT 10SM SCT014 OVC042 02/01 A3068 RMK AO2 T00170006
KHWV 230456Z AUTO VRB04KT 10SM OVC014 02/01 A3067 RMK AO2 SLP386 T00220011 401330022
KHWV 230451Z AUTO 00000KT 10SM OVC014 02/01 A3067 RMK AO2
KHWV 230416Z AUTO 04003KT 10SM FEW010 BKN015 OVC039 02/01 A3068 RMK AO2 T00220011
KHWV 230356Z AUTO VRB05KT 10SM BKN012 BKN039 OVC065 03/02 A3068 RMK AO2 SLP388 T00280017
KHWV 230256Z AUTO VRB03KT 10SM OVC012 03/02 A3065 RMK AO2 SLP377 T00280022 53002
KHWV 230245Z AUTO VRB03KT 10SM BKN011 OVC017 03/02 A3065 RMK AO2 T00280022
KHWV 230156Z AUTO 04003KT 10SM SCT012 OVC018 03/02 A3064 RMK AO2 SLP376 T00280022
KHWV 230143Z AUTO 00000KT 10SM SCT005 OVC012 02/02 A3063 RMK AO2 T00220022
KHWV 230056Z AUTO 02003KT 10SM OVC006 02/02 A3063 RMK AO2 SLP372 T00220017
KHWV 222356Z AUTO 01006KT 10SM OVC005 02/02 A3064 RMK AO2 RAE29UPB27E28 SLP376 P0001 60007 T00220022 10067 20022 50010
KHWV 222256Z AUTO 02005KT 5SM -RA BR BKN006 OVC039 03/03 A3065 RMK AO2 SLP380 P0004 T00280028
KHWV 222254Z AUTO 01005KT 5SM -RA BR BKN006 OVC039 03/03 A3066 RMK AO2 P0004
KHWV 222237Z AUTO 01005G14KT 4SM -RA BR FEW006 BKN037 OVC060 03/03 A3066 RMK AO2 P0004 T00280028
KHWV 222230Z AUTO 01006G14KT 2 1/2SM -RA BR FEW006 BKN039 OVC050 03/02 A3065 RMK AO2 P0003 T00280022
KHWV 222156Z AUTO VRB05KT 6SM -RA BR BKN034 OVC047 04/02 A3061 RMK AO2 RAE04B32 SLP365 P0001 T00390017
KHWV 222056Z AUTO VRB04KT 9SM -RA OVC043 05/03 A3058 RMK AO2 SLP355 P0001 60001 T00500028 53007
KHWV 221956Z AUTO 00000KT 10SM -RA OVC038 05/03 A3056 RMK AO2 RAB18 SLP347 P0000 T00500033
KHWV 221856Z AUTO VRB04KT 10SM OVC038 06/02 A3055 RMK AO2 RAB33E50 SLP346 P0000 T00610017
KHWV 221756Z AUTO VRB05KT 10SM OVC036 07/01 A3056 RMK AO2 SLP348 60000 T00670011 10078 20061 58013
KHWV 221656Z AUTO VRB05KT 10SM OVC047 06/02 A3059 RMK AO2 RAB24E39 SLP360 P0000 T00610017
KHWV 221556Z AUTO VRB05KT 10SM OVC047 07/02 A3063 RMK AO2 RAE24 SLP373 P0000 T00670017
KHWV 221456Z AUTO VRB04KT 10SM -RA OVC050 07/00 A3060 RMK AO2 RAB02E18B39 SLP361 P0000 60000 T00720000 53017
KHWV 221356Z AUTO 02005KT 10SM OVC050 08/01 A3059 RMK AO2 RAB18E32 SLP358 P0000 T00780011
KHWV 221256Z AUTO VRB05KT 10SM OVC055 07/03 A3056 RMK AO2 SLP347 T00720028
KHWV 221156Z AUTO 01009G16KT 10SM SCT022 OVC055 07/04 A3055 RMK AO2 RAB26E40 SLP345 P0000 60002 70002 T00720044 10133 20072 51020
KHWV 221056Z AUTO 36009G20KT 10SM OVC055 08/03 A3055 RMK AO2 RAE0957 SLP345 P0000 T00830028
KHWV 220956Z AUTO 36012G19KT 10SM -RA OVC049 09/03 A3051 RMK AO2 RAB48 SLP332 P0000 T00890033
KHWV 220856Z AUTO 35011KT 10SM OVC046 10/05 A3049 RMK AO2 RAE23 SLP325 P0001 60002 T01000050 51025
KHWV 220756Z AUTO 35011G16KT 10SM -RA OVC041 11/06 A3048 RMK AO2 RAB0659E21B54 SLP320 P0001 T01110056
KHWV 220656Z AUTO 35011KT 10SM OVC041 12/06 A3044 RMK AO2 RAB06E20 SLP308 P0000 T01220056
KHWV 220556Z AUTO 35009KT 10SM OVC042 13/06 A3041 RMK AO2 SLP299 60000 T01330061 10156 20111 53017
KHWV 220456Z AUTO 35005KT 10SM OVC038 12/09 A3040 RMK AO2 RAE37 SLP292 P0000 T01220094 401560089
KHWV 220356Z AUTO 36008KT 10SM -RA BKN038 OVC080 13/10 A3038 RMK AO2 RAB46 SLP288 P0000 T01280100
KHWV 212356Z AUTO 23006KT 10SM CLR 12/11 A3027 RMK AO2 SLP250 T01170111 10133 20111 52014
KHWV 212256Z AUTO 23006KT 10SM CLR 12/11 A3026 RMK AO2 SLP246 T01220111
KHWV 212156Z AUTO 22007KT 10SM CLR 13/11 A3024 RMK AO2 SLP241 T01280111
KHWV 212056Z AUTO 21011KT 10SM CLR 13/11 A3023 RMK AO2 SLP236 T01280111 56008
KHWV 212015Z AUTO 21011KT 10SM SCT005 13/12 A3023 RMK AO2 T01280117
KHWV 212003Z AUTO 22010KT 10SM BKN005 13/12 A3024 RMK AO2 T01280117
KHWV 211956Z AUTO 22006G18KT 10SM OVC004 13/12 A3023 RMK AO2 SLP237 T01280117
KHWV 211856Z AUTO 21008KT 7SM OVC003 12/11 A3024 RMK AO2 SLP238 T01170111